createdAt,value
2023-05-17T00:01:30.365Z,55.78
2023-05-17T00:03:58.157Z,55.96
2023-05-17T00:06:26.467Z,55.31
2023-05-17T00:08:54.405Z,55.23
2023-05-17T00:11:22.418Z,55.17
2023-05-17T00:13:50.222Z,55.53
2023-05-17T00:16:19.581Z,55.47
2023-05-17T00:18:47.537Z,55.55
2023-05-17T00:21:15.466Z,55.36
2023-05-17T00:23:43.387Z,55.54
2023-05-17T00:26:11.269Z,55.37
2023-05-17T00:28:39.149Z,55.57
2023-05-17T00:31:07.529Z,55.63
2023-05-17T00:33:36.691Z,55.56
2023-05-17T00:36:04.965Z,55.97
2023-05-17T00:38:32.956Z,55.86
2023-05-17T00:41:00.886Z,55.94
2023-05-17T00:43:28.792Z,55.90
2023-05-17T00:45:56.649Z,55.84
2023-05-17T00:48:26.383Z,55.69
2023-05-17T00:50:57.349Z,55.93
2023-05-17T00:53:25.674Z,56.33
2023-05-17T00:55:55.124Z,56.12
2023-05-17T00:58:24.013Z,56.31
2023-05-17T01:00:52.308Z,56.09
2023-05-17T01:03:22.647Z,55.79
2023-05-17T01:05:50.905Z,55.86
2023-05-17T01:08:20.413Z,56.08
2023-05-17T01:10:58.351Z,55.64
2023-05-17T01:13:33.443Z,55.74
2023-05-17T01:16:08.090Z,56.25
2023-05-17T01:18:41.287Z,56.04
2023-05-17T01:21:19.252Z,55.85
2023-05-17T01:24:00.662Z,55.77
2023-05-17T01:26:39.400Z,56.04
2023-05-17T01:29:10.294Z,56.27
2023-05-17T01:31:38.357Z,55.91
2023-05-17T01:34:08.859Z,56.07
2023-05-17T01:36:37.300Z,55.90
2023-05-17T01:39:05.242Z,56.05
2023-05-17T01:41:41.166Z,56.29
2023-05-17T01:44:19.885Z,56.25
2023-05-17T01:46:48.074Z,56.37
2023-05-17T01:49:23.024Z,56.62
2023-05-17T01:51:58.769Z,56.38
2023-05-17T01:54:32.657Z,56.58
2023-05-17T01:57:06.011Z,56.23
2023-05-17T01:59:36.156Z,56.40
2023-05-17T02:02:08.706Z,56.59
2023-05-17T02:04:37.160Z,56.74
2023-05-17T02:07:05.368Z,56.57
2023-05-17T02:09:33.219Z,56.73
2023-05-17T02:43:36.833Z,56.29
2023-05-17T02:46:05.052Z,56.33
2023-05-17T02:48:32.945Z,56.56
2023-05-17T02:51:00.893Z,56.51
2023-05-17T02:53:28.722Z,56.55
2023-05-17T02:55:58.248Z,56.57
2023-05-17T02:58:26.344Z,56.51
2023-05-17T03:00:55.643Z,56.55
2023-05-17T03:03:23.778Z,56.48
2023-05-17T03:05:51.774Z,56.18
2023-05-17T03:08:19.593Z,56.43
2023-05-17T03:10:47.440Z,56.15
2023-05-17T03:13:15.209Z,56.43
2023-05-17T03:15:43.029Z,56.56
2023-05-17T03:18:12.575Z,56.36
2023-05-17T03:20:40.632Z,56.39
2023-05-17T03:23:08.474Z,56.28
2023-05-17T03:25:36.360Z,56.41
2023-05-17T03:28:04.201Z,56.57
2023-05-17T03:30:32.174Z,56.35
2023-05-17T03:33:00.127Z,56.71
2023-05-17T03:35:29.668Z,56.40
2023-05-17T03:37:57.636Z,56.55
2023-05-17T03:40:26.231Z,56.81
2023-05-17T03:42:54.354Z,56.62
2023-05-17T03:45:22.303Z,57.03
2023-05-17T03:47:50.260Z,56.65
2023-05-17T03:50:18.428Z,56.80
2023-05-17T03:52:47.639Z,56.87
2023-05-17T03:55:15.630Z,56.96
2023-05-17T03:57:43.462Z,56.83
2023-05-17T04:00:12.777Z,56.72
2023-05-17T04:02:41.143Z,56.83
2023-05-17T04:05:09.525Z,57.08
2023-05-17T04:07:37.372Z,56.79
2023-05-17T04:10:07.955Z,57.12
2023-05-17T04:12:36.314Z,56.74
2023-05-17T04:15:05.130Z,57.15
2023-05-17T04:17:32.968Z,57.14
2023-05-17T04:20:00.851Z,57.44
2023-05-17T04:22:28.641Z,57.26
2023-05-17T04:24:56.427Z,57.60
2023-05-17T04:27:25.777Z,57.25
2023-05-17T04:29:53.596Z,57.33
2023-05-17T04:32:21.498Z,57.38
2023-05-17T04:34:49.402Z,57.43
2023-05-17T04:37:17.267Z,57.50
2023-05-17T04:39:45.080Z,57.92
2023-05-17T04:42:13.008Z,58.22
2023-05-17T04:44:42.165Z,58.06
2023-05-17T04:47:10.142Z,58.29
2023-05-17T04:49:38.033Z,58.31
2023-05-17T04:52:06.558Z,58.09
2023-05-17T04:54:34.653Z,58.46
2023-05-17T04:57:03.661Z,58.36
2023-05-17T04:59:31.493Z,58.29
2023-05-17T05:02:00.974Z,58.30
2023-05-17T05:04:28.759Z,58.79
2023-05-17T05:06:56.584Z,58.45
2023-05-17T05:09:24.426Z,58.73
2023-05-17T05:11:52.355Z,59.01
2023-05-17T05:14:20.200Z,59.04
2023-05-17T05:16:48.090Z,58.79
2023-05-17T05:19:17.628Z,59.16
2023-05-17T05:21:46.953Z,59.27
2023-05-17T05:24:15.132Z,60.01
2023-05-17T05:26:43.000Z,60.09
2023-05-17T05:29:10.840Z,60.18
2023-05-17T05:31:38.606Z,59.83
2023-05-17T05:34:06.577Z,60.00
2023-05-17T05:36:38.231Z,60.29
2023-05-17T05:39:07.852Z,60.41
2023-05-17T05:41:36.988Z,60.34
2023-05-17T05:44:04.994Z,60.90
2023-05-17T05:46:32.867Z,60.80
2023-05-17T05:49:01.027Z,60.79
2023-05-17T05:51:28.938Z,61.05
2023-05-17T05:53:58.674Z,61.30
2023-05-17T05:56:28.106Z,61.26
2023-05-17T05:58:56.054Z,61.18
2023-05-17T06:01:25.437Z,61.29
2023-05-17T06:03:53.292Z,61.17
2023-05-17T06:06:21.324Z,61.60
2023-05-17T06:08:49.289Z,61.30
2023-05-17T06:11:20.467Z,61.39
2023-05-17T06:13:48.435Z,62.32
2023-05-17T06:16:16.402Z,62.31
2023-05-17T06:18:44.419Z,61.88
2023-05-17T06:21:13.451Z,61.70
2023-05-17T06:23:41.596Z,61.37
2023-05-17T06:26:10.889Z,61.59
2023-05-17T06:28:40.254Z,61.42
2023-05-17T06:31:08.310Z,61.09
2023-05-17T06:33:36.192Z,60.59
2023-05-17T06:36:04.073Z,60.45
2023-05-17T06:38:31.877Z,60.50
2023-05-17T06:40:59.666Z,60.22
2023-05-17T06:43:27.540Z,60.16
2023-05-17T06:45:56.723Z,59.58
2023-05-17T06:48:25.576Z,59.34
2023-05-17T06:50:53.761Z,59.10
2023-05-17T06:53:21.933Z,58.44
2023-05-17T06:55:49.943Z,57.91
2023-05-17T06:58:18.024Z,58.17
2023-05-17T07:00:46.058Z,57.91
2023-05-17T07:03:16.385Z,57.78
2023-05-17T07:05:44.509Z,57.21
2023-05-17T07:08:12.768Z,57.27
2023-05-17T07:10:41.063Z,57.10
2023-05-17T07:13:09.188Z,56.98
2023-05-17T07:15:37.101Z,56.74
2023-05-17T07:18:05.461Z,56.63
2023-05-17T07:20:34.772Z,56.37
2023-05-17T07:23:02.756Z,56.54
2023-05-17T07:25:30.857Z,56.53
2023-05-17T07:27:58.992Z,56.21
2023-05-17T07:30:27.381Z,56.29
2023-05-17T07:32:55.332Z,55.44
2023-05-17T07:35:23.248Z,55.33
2023-05-17T07:37:52.615Z,54.81
2023-05-17T07:40:20.597Z,54.67
2023-05-17T07:42:48.506Z,54.49
2023-05-17T07:45:16.547Z,54.08
2023-05-17T07:47:44.482Z,54.28
2023-05-17T07:50:12.828Z,54.00
2023-05-17T07:52:41.392Z,53.34
2023-05-17T07:55:11.815Z,53.35
2023-05-17T07:57:39.911Z,53.35
2023-05-17T08:00:13.112Z,52.90
2023-05-17T08:02:41.832Z,53.12
2023-05-17T08:05:11.057Z,52.96
2023-05-17T08:07:39.356Z,52.95
2023-05-17T08:10:08.097Z,52.83
2023-05-17T08:12:37.473Z,52.75
2023-05-17T08:15:06.171Z,52.94
2023-05-17T08:17:34.104Z,52.66
2023-05-17T08:20:04.875Z,53.16
2023-05-17T08:22:32.799Z,52.83
2023-05-17T08:25:00.719Z,53.05
2023-05-17T08:27:31.264Z,52.77
2023-05-17T08:30:00.826Z,52.85
2023-05-17T08:32:29.272Z,53.14
2023-05-17T08:34:57.901Z,52.95
2023-05-17T08:37:25.796Z,52.95
2023-05-17T08:39:53.702Z,53.02
2023-05-17T08:42:25.214Z,52.84
2023-05-17T08:44:53.986Z,52.64
2023-05-17T08:47:32.262Z,52.78
2023-05-17T08:50:00.740Z,53.02
2023-05-17T08:52:32.244Z,52.33
2023-05-17T08:55:01.242Z,52.16
2023-05-17T08:57:31.502Z,52.61
2023-05-17T09:00:00.445Z,52.35
2023-05-17T09:02:32.086Z,51.90
2023-05-17T09:05:01.045Z,51.16
2023-05-17T09:07:28.907Z,49.87
2023-05-17T09:09:56.808Z,50.25
2023-05-17T09:12:25.829Z,48.85
2023-05-17T09:14:53.751Z,48.96
2023-05-17T09:17:22.950Z,49.40
2023-05-17T09:19:52.375Z,49.44
2023-05-17T09:22:21.709Z,49.37
2023-05-17T09:24:50.763Z,49.50
2023-05-17T09:27:19.635Z,49.64
2023-05-17T09:29:48.180Z,49.55
2023-05-17T09:32:17.492Z,49.82
2023-05-17T09:34:47.045Z,49.62
2023-05-17T09:37:17.881Z,49.49
2023-05-17T09:39:47.679Z,50.18
2023-05-17T09:42:16.859Z,49.77
2023-05-17T09:44:49.649Z,50.19
2023-05-17T09:47:25.099Z,49.53
2023-05-17T09:49:53.248Z,49.12
2023-05-17T09:52:23.022Z,49.10
2023-05-17T09:54:55.299Z,48.75
2023-05-17T09:57:23.818Z,48.54
2023-05-17T09:59:53.119Z,48.63
2023-05-17T10:02:28.971Z,49.10
2023-05-17T10:04:58.543Z,49.70
2023-05-17T10:07:28.180Z,50.05
2023-05-17T10:09:57.523Z,50.22
2023-05-17T10:12:29.515Z,50.45
2023-05-17T10:14:59.980Z,49.95
2023-05-17T10:17:29.845Z,50.33
2023-05-17T10:19:58.997Z,51.10
2023-05-17T10:22:29.360Z,49.75
2023-05-17T10:24:58.554Z,50.29
2023-05-17T10:27:27.143Z,49.30
2023-05-17T10:29:56.126Z,49.75
2023-05-17T10:32:27.288Z,50.61
2023-05-17T10:35:09.252Z,49.95
2023-05-17T10:37:41.759Z,49.46
2023-05-17T10:40:14.271Z,49.96
2023-05-17T10:42:45.940Z,50.33
2023-05-17T10:45:14.753Z,50.22
2023-05-17T10:47:45.115Z,50.41
2023-05-17T10:50:15.474Z,49.28
2023-05-17T10:52:56.010Z,49.66
2023-05-17T10:55:26.171Z,48.85
2023-05-17T10:58:19.944Z,49.45
2023-05-17T11:00:52.548Z,50.06
2023-05-17T11:03:23.627Z,49.30
2023-05-17T11:06:23.415Z,49.24
2023-05-17T11:12:07.258Z,47.96
2023-05-17T11:14:47.414Z,46.96
2023-05-17T11:17:15.883Z,46.91
2023-05-17T11:19:51.584Z,47.08
2023-05-17T11:22:19.757Z,46.92
2023-05-17T11:24:53.091Z,47.07
2023-05-17T11:27:27.578Z,47.32
2023-05-17T11:29:56.600Z,46.68
2023-05-17T11:32:29.305Z,47.34
2023-05-17T11:34:57.698Z,48.58
2023-05-17T11:37:29.740Z,48.36
2023-05-17T11:40:06.003Z,47.76
2023-05-17T11:42:35.838Z,47.35
2023-05-17T11:45:04.156Z,46.33
2023-05-17T11:47:32.437Z,46.32
2023-05-17T11:50:03.144Z,46.21
2023-05-17T11:52:32.579Z,46.55
2023-05-17T11:55:01.519Z,47.40
2023-05-17T11:57:31.353Z,46.40
2023-05-17T12:00:05.895Z,46.11
2023-05-17T12:02:34.138Z,47.18
2023-05-17T12:05:02.373Z,46.53
2023-05-17T12:07:30.648Z,47.18
2023-05-17T12:09:58.742Z,47.21
2023-05-17T12:12:29.864Z,47.59
2023-05-17T12:14:58.775Z,48.42
2023-05-17T12:17:36.899Z,48.40
2023-05-17T12:20:09.131Z,46.76
2023-05-17T12:22:52.850Z,44.32
2023-05-17T12:25:23.407Z,46.60
2023-05-17T12:27:51.588Z,45.58
2023-05-17T12:30:20.407Z,43.20
2023-05-17T12:32:49.753Z,43.27
2023-05-17T12:35:17.758Z,42.75
2023-05-17T12:37:45.933Z,42.56
2023-05-17T12:40:14.222Z,42.49
2023-05-17T12:42:43.831Z,42.38
2023-05-17T12:45:13.699Z,41.55
2023-05-17T12:47:41.574Z,41.20
2023-05-17T12:50:12.397Z,41.50
2023-05-17T12:52:42.092Z,40.11
2023-05-17T12:55:14.268Z,39.66
2023-05-17T12:57:50.298Z,40.61
2023-05-17T13:00:19.358Z,40.11
2023-05-17T13:02:47.425Z,40.24
2023-05-17T13:05:18.600Z,43.47
2023-05-17T13:07:47.396Z,44.49
2023-05-17T13:10:23.028Z,44.35
2023-05-17T13:12:58.166Z,46.21
2023-05-17T13:15:30.372Z,43.12
2023-05-17T13:17:58.896Z,42.39
2023-05-17T13:20:29.210Z,41.35
2023-05-17T13:22:57.478Z,41.32
2023-05-17T13:25:25.568Z,41.80
2023-05-17T13:27:55.413Z,40.78
2023-05-17T13:30:23.455Z,40.56
2023-05-17T13:32:51.731Z,40.59
2023-05-17T13:35:19.527Z,40.64
2023-05-17T13:37:48.839Z,40.51
2023-05-17T13:40:16.912Z,40.27
2023-05-17T13:42:44.694Z,40.08
2023-05-17T13:45:13.641Z,40.35
2023-05-17T13:47:41.988Z,39.68
2023-05-17T13:50:12.062Z,39.27
2023-05-17T13:52:39.980Z,39.27
2023-05-17T13:55:09.930Z,40.07
2023-05-17T13:57:37.745Z,39.86
2023-05-17T14:00:06.876Z,38.75
2023-05-17T14:02:34.799Z,39.28
2023-05-17T14:05:02.601Z,38.67
2023-05-17T14:07:30.352Z,38.71
2023-05-17T14:09:58.252Z,38.29
2023-05-17T14:12:27.415Z,38.34
2023-05-17T14:14:55.294Z,38.46
2023-05-17T14:17:23.094Z,38.27
2023-05-17T14:19:51.073Z,39.33
2023-05-17T14:22:19.030Z,39.44
2023-05-17T14:24:46.842Z,38.88
2023-05-17T14:27:14.640Z,38.53
2023-05-17T14:29:43.801Z,38.03
2023-05-17T14:32:12.912Z,37.41
2023-05-17T14:34:40.855Z,37.88
2023-05-17T14:37:08.727Z,37.75
2023-05-17T14:39:36.814Z,37.57
2023-05-17T14:42:05.263Z,37.25
2023-05-17T14:44:34.689Z,37.33
2023-05-17T14:47:03.801Z,37.79
2023-05-17T14:49:31.570Z,37.81
2023-05-17T14:51:59.383Z,37.85
2023-05-17T14:54:29.754Z,37.81
2023-05-17T14:56:57.651Z,37.41
2023-05-17T14:59:26.207Z,37.14
2023-05-17T15:01:54.070Z,38.72
2023-05-17T15:04:23.277Z,38.51
2023-05-17T15:06:51.056Z,37.60
2023-05-17T15:09:18.980Z,36.78
2023-05-17T15:11:46.925Z,35.95
2023-05-17T15:14:19.092Z,35.76
2023-05-17T15:16:47.070Z,35.41
2023-05-17T15:19:15.439Z,35.91
2023-05-17T15:21:44.864Z,34.48
2023-05-17T15:24:14.367Z,34.30
2023-05-17T15:26:44.397Z,34.61
2023-05-17T15:29:12.228Z,34.52
2023-05-17T15:31:40.068Z,34.89
2023-05-17T15:34:08.670Z,35.32
2023-05-17T15:36:36.577Z,36.80
2023-05-17T15:39:06.017Z,35.86
2023-05-17T15:41:33.755Z,35.32
2023-05-17T15:44:01.782Z,36.09
2023-05-17T15:46:29.556Z,35.66
2023-05-17T15:48:57.907Z,34.64
2023-05-17T15:51:25.739Z,35.24
2023-05-17T15:53:53.540Z,34.60
2023-05-17T15:56:23.229Z,34.14
2023-05-17T15:58:51.605Z,34.96
2023-05-17T16:01:19.641Z,33.24
2023-05-17T16:03:47.556Z,32.83
2023-05-17T16:06:15.711Z,33.49
2023-05-17T16:08:43.628Z,32.67
2023-05-17T16:11:11.403Z,33.11
2023-05-17T16:13:40.576Z,32.76
2023-05-17T16:16:08.362Z,32.68
2023-05-17T16:18:36.226Z,32.57
2023-05-17T16:21:05.393Z,32.83
2023-05-17T16:23:33.580Z,32.71
2023-05-17T16:26:01.494Z,32.60
2023-05-17T16:28:29.443Z,33.31
2023-05-17T16:30:58.692Z,33.38
2023-05-17T16:33:26.780Z,33.06
2023-05-17T16:35:54.926Z,33.54
2023-05-17T16:38:22.701Z,34.55
2023-05-17T16:40:50.489Z,34.35
2023-05-17T16:43:18.256Z,34.31
2023-05-17T16:45:46.453Z,34.59
2023-05-17T16:48:16.052Z,35.62
2023-05-17T16:50:43.946Z,34.70
2023-05-17T16:53:12.028Z,34.48
2023-05-17T16:55:39.789Z,34.23
2023-05-17T16:58:07.564Z,34.18
2023-05-17T17:00:35.735Z,34.50
2023-05-17T17:03:04.731Z,34.82
2023-05-17T17:05:35.025Z,34.76
2023-05-17T17:08:02.845Z,35.04
2023-05-17T17:10:31.071Z,35.00
2023-05-17T17:12:59.135Z,35.15
2023-05-17T17:15:27.361Z,35.08
2023-05-17T17:17:55.181Z,35.42
2023-05-17T17:20:23.155Z,34.99
2023-05-17T17:22:52.283Z,34.54
2023-05-17T17:25:20.206Z,34.07
2023-05-17T17:27:48.034Z,34.03
2023-05-17T17:30:16.103Z,34.37
2023-05-17T17:32:43.965Z,34.41
2023-05-17T17:35:11.784Z,34.91
2023-05-17T17:37:39.532Z,35.44
2023-05-17T17:40:10.346Z,35.79
2023-05-17T17:42:38.148Z,36.04
2023-05-17T17:45:06.992Z,35.88
2023-05-17T17:47:34.795Z,36.42
2023-05-17T17:50:02.723Z,36.46
2023-05-17T17:52:30.554Z,36.26
2023-05-17T17:54:58.337Z,35.92
2023-05-17T17:57:27.513Z,35.92
2023-05-17T17:59:56.206Z,35.58
2023-05-17T18:02:23.968Z,35.90
2023-05-17T18:04:51.778Z,35.21
2023-05-17T18:07:19.705Z,35.15
2023-05-17T18:09:47.480Z,35.04
2023-05-17T18:12:15.358Z,35.59
2023-05-17T18:14:44.512Z,35.67
2023-05-17T18:17:12.279Z,36.15
2023-05-17T18:19:40.085Z,36.32
2023-05-17T18:22:07.875Z,36.32
2023-05-17T18:24:35.669Z,36.70
2023-05-17T18:27:03.654Z,36.89
2023-05-17T18:29:31.523Z,36.83
2023-05-17T18:32:01.620Z,37.21
2023-05-17T18:34:29.464Z,36.86
2023-05-17T18:36:57.210Z,36.95
2023-05-17T18:39:25.027Z,36.98
2023-05-17T18:41:52.845Z,37.32
2023-05-17T18:44:20.852Z,37.47
2023-05-17T18:46:49.616Z,37.33
2023-05-17T18:49:18.767Z,37.29
2023-05-17T18:51:46.565Z,37.36
2023-05-17T18:54:14.474Z,37.87
2023-05-17T18:56:42.209Z,37.83
2023-05-17T18:59:09.975Z,38.15
2023-05-17T19:01:38.028Z,38.34
2023-05-17T19:04:05.898Z,38.68
2023-05-17T19:06:35.109Z,38.30
2023-05-17T19:09:02.970Z,38.31
2023-05-17T19:11:30.769Z,38.54
2023-05-17T19:13:58.595Z,38.62
2023-05-17T19:16:26.459Z,39.01
2023-05-17T19:18:54.294Z,39.10
2023-05-17T19:21:22.200Z,39.00
2023-05-17T19:23:51.307Z,39.00
2023-05-17T19:26:19.117Z,39.09
2023-05-17T19:28:46.870Z,39.19
2023-05-17T19:31:14.605Z,39.19
2023-05-17T19:33:42.404Z,39.70
2023-05-17T19:36:10.169Z,39.62
2023-05-17T19:38:37.970Z,39.76
2023-05-17T19:41:07.481Z,39.78
2023-05-17T19:43:35.757Z,39.89
2023-05-17T19:46:03.862Z,40.03
2023-05-17T19:48:31.676Z,40.11
2023-05-17T19:50:59.489Z,40.11
2023-05-17T19:53:28.637Z,40.44
2023-05-17T19:56:05.571Z,40.39
2023-05-17T19:58:35.043Z,40.60
2023-05-17T20:01:02.869Z,40.85
2023-05-17T20:03:30.869Z,40.73
2023-05-17T20:05:58.727Z,40.85
2023-05-17T20:08:26.507Z,40.73
2023-05-17T20:10:54.271Z,41.10
2023-05-17T20:13:24.781Z,40.93
2023-05-17T20:15:53.937Z,41.23
2023-05-17T20:18:22.140Z,41.43
2023-05-17T20:20:50.784Z,41.55
2023-05-17T20:23:18.642Z,41.75
2023-05-17T20:25:46.381Z,41.83
2023-05-17T20:28:14.118Z,41.89
2023-05-17T20:30:44.575Z,41.75
2023-05-17T20:33:13.951Z,42.14
2023-05-17T20:35:41.670Z,41.96
2023-05-17T20:38:09.698Z,42.47
2023-05-17T20:40:37.614Z,42.17
2023-05-17T20:43:09.733Z,42.43
2023-05-17T20:45:37.752Z,42.65
2023-05-17T20:48:05.592Z,42.68
2023-05-17T20:50:37.164Z,42.89
2023-05-17T20:53:04.934Z,42.74
2023-05-17T20:55:32.660Z,43.04
2023-05-17T20:58:00.394Z,43.25
2023-05-17T21:00:28.488Z,43.22
2023-05-17T21:02:56.479Z,43.19
2023-05-17T21:05:24.440Z,43.14
2023-05-17T21:07:53.559Z,43.19
2023-05-17T21:10:21.277Z,43.35
2023-05-17T21:12:49.058Z,43.41
2023-05-17T21:15:17.490Z,43.33
2023-05-17T21:17:45.470Z,43.45
2023-05-17T21:20:13.859Z,43.47
2023-05-17T21:22:41.692Z,43.60
2023-05-17T21:25:11.349Z,43.81
2023-05-17T21:27:39.085Z,43.95
2023-05-17T21:30:08.263Z,43.70
2023-05-17T21:32:36.107Z,43.84
2023-05-17T21:35:04.091Z,43.96
2023-05-17T21:37:31.815Z,43.80
2023-05-17T21:39:59.576Z,43.95
2023-05-17T21:42:28.691Z,44.15
2023-05-17T21:44:56.481Z,44.04
2023-05-17T21:47:24.980Z,43.74
2023-05-17T21:49:52.849Z,44.04
2023-05-17T21:52:20.649Z,44.03
2023-05-17T21:54:48.688Z,44.10
2023-05-17T21:57:16.410Z,44.09
2023-05-17T21:59:46.022Z,44.21
2023-05-17T22:02:13.925Z,44.43
2023-05-17T22:04:41.747Z,44.32
2023-05-17T22:07:10.291Z,44.39
2023-05-17T22:09:38.121Z,44.53
2023-05-17T22:12:08.428Z,44.21
2023-05-17T22:14:36.502Z,44.50
2023-05-17T22:17:08.529Z,44.61
2023-05-17T22:19:40.371Z,44.75
2023-05-17T22:22:08.689Z,44.75
2023-05-17T22:24:36.483Z,44.40
2023-05-17T22:27:04.814Z,44.75
2023-05-17T22:29:33.246Z,44.89
2023-05-17T22:32:01.142Z,44.47
2023-05-17T22:34:30.381Z,44.41
2023-05-17T22:36:58.362Z,44.62
2023-05-17T22:39:26.123Z,44.41
2023-05-17T22:41:53.909Z,44.79
2023-05-17T22:44:22.135Z,44.46
2023-05-17T22:46:49.962Z,44.69
2023-05-17T22:49:18.515Z,44.38
2023-05-17T22:51:47.863Z,44.34
2023-05-17T22:54:15.827Z,44.71
2023-05-17T22:56:43.580Z,44.79
2023-05-17T22:59:11.589Z,44.77
2023-05-17T23:01:39.457Z,44.72
2023-05-17T23:04:07.679Z,44.78
2023-05-17T23:06:35.539Z,44.30
2023-05-17T23:09:05.419Z,44.46
2023-05-17T23:11:35.040Z,44.70
2023-05-17T23:14:02.938Z,44.59
2023-05-17T23:16:30.762Z,44.84
2023-05-17T23:19:00.120Z,44.60
2023-05-17T23:21:27.964Z,44.77
2023-05-17T23:23:56.035Z,44.63
2023-05-17T23:26:25.153Z,44.39
2023-05-17T23:28:53.622Z,44.71
2023-05-17T23:31:21.739Z,44.55
2023-05-17T23:33:49.539Z,44.83
2023-05-17T23:36:17.305Z,44.81
2023-05-17T23:38:45.015Z,44.72
2023-05-17T23:41:17.925Z,44.45
2023-05-17T23:43:47.731Z,44.85
2023-05-17T23:46:19.992Z,44.56
2023-05-17T23:48:50.430Z,45.13
2023-05-17T23:51:19.827Z,44.62
2023-05-17T23:53:48.975Z,45.05
2023-05-17T23:56:17.773Z,44.88
2023-05-17T23:58:47.204Z,44.69
